Time;durP1;ratioP1;P1;durP2;ratioP2;P2;SDS_P1;SDS_P2;PMS_P1;PMS_P2;Temp;Humidity;BMP_temperature;BMP_pressure;BME280_temperature;BME280_humidity;BME280_pressure;Samples;Min_cycle;Max_cycle;Signal;HPM_P1;HPM_P2
2022/07/15 00:01:59;;;;;;;7.35;3.15;;;15.50;99.90;;;;;;5003437;28;21958;-71
2022/07/15 00:04:25;;;;;;;8.93;3.65;;;15.40;99.90;;;;;;4987189;28;20030;-71
2022/07/15 00:06:51;;;;;;;5.57;3.00;;;15.30;99.90;;;;;;5011233;28;20032;-71
2022/07/15 00:09:17;;;;;;;6.78;2.70;;;15.30;99.90;;;;;;5007100;28;20030;-71
2022/07/15 00:11:42;;;;;;;8.40;3.63;;;15.30;99.90;;;;;;5010083;28;20036;-71
2022/07/15 00:14:08;;;;;;;8.05;3.33;;;15.30;99.90;;;;;;5006136;28;20413;-72
2022/07/15 00:16:34;;;;;;;8.95;3.22;;;15.20;99.90;;;;;;5018696;28;20091;-71
2022/07/15 00:18:59;;;;;;;9.10;3.90;;;15.20;99.90;;;;;;5006524;28;20121;-71
2022/07/15 00:21:25;;;;;;;8.60;3.92;;;15.10;99.90;;;;;;5009772;28;20472;-71
2022/07/15 00:23:51;;;;;;;6.38;3.25;;;15.00;99.90;;;;;;5013528;28;20257;-72
2022/07/15 00:26:16;;;;;;;10.73;4.55;;;15.00;99.90;;;;;;5005661;28;20034;-72
2022/07/15 00:28:42;;;;;;;7.18;4.10;;;14.90;99.90;;;;;;5008305;28;20453;-71
2022/07/15 00:31:08;;;;;;;6.80;3.83;;;14.90;99.90;;;;;;4998972;28;20446;-72
2022/07/15 00:33:33;;;;;;;10.13;4.40;;;14.90;99.90;;;;;;4992982;28;20526;-70
2022/07/15 00:35:59;;;;;;;7.75;3.88;;;14.90;99.90;;;;;;4990980;28;20054;-73
2022/07/15 00:38:25;;;;;;;7.03;3.50;;;14.80;99.90;;;;;;5009760;28;20431;-71
2022/07/15 00:40:51;;;;;;;8.30;4.05;;;14.90;99.90;;;;;;5008540;28;20033;-70
2022/07/15 00:43:18;;;;;;;9.48;4.72;;;14.90;99.90;;;;;;5013556;28;20046;-71
2022/07/15 00:45:45;;;;;;;10.88;5.28;;;14.90;99.90;;;;;;5006353;28;20223;-72
2022/07/15 00:48:11;;;;;;;9.02;4.63;;;15.00;99.90;;;;;;4988313;28;20029;-72
2022/07/15 00:50:37;;;;;;;8.65;5.05;;;15.00;99.90;;;;;;5009096;28;20030;-72
2022/07/15 00:53:07;;;;;;;8.35;5.20;;;15.00;99.90;;;;;;5009145;28;20037;-72
2022/07/15 00:55:37;;;;;;;8.93;5.40;;;15.00;99.90;;;;;;5005298;28;20048;-72
2022/07/15 00:58:04;;;;;;;11.68;4.78;;;14.90;99.90;;;;;;5003145;28;20033;-73
2022/07/15 01:00:32;;;;;;;8.88;4.50;;;15.00;99.90;;;;;;5002801;28;20483;-72
2022/07/15 01:02:59;;;;;;;7.78;4.43;;;15.10;99.90;;;;;;5004675;28;20037;-73
2022/07/15 01:05:26;;;;;;;8.73;4.55;;;15.10;99.90;;;;;;5003391;28;20042;-72
2022/07/15 01:07:52;;;;;;;8.07;4.60;;;15.20;99.90;;;;;;5005155;28;20791;-72
2022/07/15 01:10:20;;;;;;;6.85;4.30;;;15.20;99.90;;;;;;5002163;28;20885;-72
2022/07/15 01:12:48;;;;;;;8.50;4.70;;;15.30;99.90;;;;;;5008131;28;20060;-72
2022/07/15 01:15:14;;;;;;;8.30;4.45;;;15.30;99.90;;;;;;5008388;28;20038;-72
2022/07/15 01:17:40;;;;;;;10.80;5.40;;;15.20;99.90;;;;;;5011391;28;20073;-73
2022/07/15 01:20:07;;;;;;;10.90;4.93;;;15.20;99.90;;;;;;5007629;28;20481;-72
2022/07/15 01:22:33;;;;;;;9.23;5.30;;;15.10;99.90;;;;;;5010180;28;20034;-73
2022/07/15 01:24:59;;;;;;;7.93;4.40;;;15.00;99.90;;;;;;5007108;28;20044;-73
2022/07/15 01:27:26;;;;;;;6.32;3.80;;;15.00;99.90;;;;;;4995638;28;20030;-72
2022/07/15 01:29:51;;;;;;;8.45;4.60;;;15.00;99.90;;;;;;4996907;28;20037;-73
2022/07/15 01:32:17;;;;;;;7.57;3.85;;;15.00;99.90;;;;;;5011722;28;20437;-72
2022/07/15 01:34:43;;;;;;;8.88;3.70;;;15.00;99.90;;;;;;5017206;28;20087;-72
2022/07/15 01:37:09;;;;;;;7.47;3.97;;;14.90;99.90;;;;;;5012445;28;20057;-72
2022/07/15 01:39:35;;;;;;;6.55;3.58;;;14.90;99.90;;;;;;5010503;28;20029;-73
2022/07/15 01:42:00;;;;;;;7.88;3.72;;;15.00;99.90;;;;;;5012722;28;20061;-71
2022/07/15 01:44:26;;;;;;;9.52;4.05;;;15.00;99.90;;;;;;4989000;28;20085;-72
2022/07/15 01:46:52;;;;;;;7.07;3.60;;;14.90;99.90;;;;;;5009723;28;20045;-72
2022/07/15 01:49:26;;;;;;;7.47;4.05;;;14.90;99.90;;;;;;5008647;28;20030;-71
2022/07/15 01:51:54;;;;;;;10.05;4.05;;;14.80;99.90;;;;;;5007999;28;20460;-72
2022/07/15 01:54:21;;;;;;;7.32;3.83;;;14.70;99.90;;;;;;4997052;28;20395;-71
2022/07/15 01:56:48;;;;;;;8.23;3.80;;;14.70;99.90;;;;;;5005515;28;20034;-72
2022/07/15 01:59:13;;;;;;;8.38;3.95;;;14.70;99.90;;;;;;5011955;28;20030;-71
2022/07/15 02:01:39;;;;;;;8.20;4.18;;;14.70;99.90;;;;;;5007025;28;20092;-71
2022/07/15 02:04:05;;;;;;;11.30;4.93;;;14.70;99.90;;;;;;5017975;28;20142;-72
2022/07/15 02:06:31;;;;;;;10.27;4.47;;;14.60;99.90;;;;;;5016487;28;20049;-71
2022/07/15 02:08:56;;;;;;;7.78;3.70;;;14.60;99.90;;;;;;5020772;28;20042;-71
2022/07/15 02:11:22;;;;;;;8.80;4.72;;;14.50;99.90;;;;;;4997770;28;20671;-70
2022/07/15 02:13:48;;;;;;;8.23;4.20;;;14.40;99.90;;;;;;4992469;28;20036;-70
2022/07/15 02:16:14;;;;;;;10.05;4.82;;;14.40;99.90;;;;;;5007236;28;20045;-72
2022/07/15 02:18:39;;;;;;;9.25;4.80;;;14.40;99.90;;;;;;4998659;28;20162;-71
2022/07/15 02:21:05;;;;;;;8.00;4.78;;;14.40;99.90;;;;;;5008412;28;20389;-71
2022/07/15 02:23:31;;;;;;;9.80;4.80;;;14.40;99.90;;;;;;5008384;28;20065;-71
2022/07/15 02:25:57;;;;;;;10.85;5.00;;;14.30;99.90;;;;;;5011316;28;20141;-71
2022/07/15 02:28:23;;;;;;;9.10;4.55;;;14.20;99.90;;;;;;5007088;28;20034;-71
2022/07/15 02:30:48;;;;;;;9.05;4.63;;;14.20;99.90;;;;;;5012937;28;20059;-71
2022/07/15 02:33:14;;;;;;;8.50;4.97;;;14.20;99.90;;;;;;4996428;28;20038;-71
2022/07/15 02:35:42;;;;;;;8.48;4.63;;;14.30;99.90;;;;;;5007042;28;20116;-71
2022/07/15 02:38:08;;;;;;;10.48;5.05;;;14.20;99.90;;;;;;4997632;28;20037;-71
2022/07/15 02:40:33;;;;;;;10.15;4.38;;;14.20;99.90;;;;;;5012138;28;20030;-72
2022/07/15 02:43:01;;;;;;;9.18;4.65;;;14.20;99.90;;;;;;5009163;28;20046;-71
2022/07/15 02:45:33;;;;;;;7.35;4.65;;;14.20;99.90;;;;;;5009283;28;20445;-71
2022/07/15 02:47:59;;;;;;;10.35;5.13;;;14.20;99.90;;;;;;5008716;28;20038;-72
2022/07/15 02:50:24;;;;;;;9.18;5.00;;;14.20;99.90;;;;;;5005116;28;20447;-71
2022/07/15 02:52:50;;;;;;;9.38;4.80;;;14.20;99.90;;;;;;5005998;28;20034;-71
2022/07/15 02:55:17;;;;;;;9.68;4.50;;;14.10;99.90;;;;;;5014110;28;20036;-71
2022/07/15 02:57:42;;;;;;;8.23;4.45;;;14.10;99.90;;;;;;5015989;28;20088;-71
2022/07/15 03:00:13;;;;;;;8.70;4.78;;;14.10;99.90;;;;;;5011229;28;20037;-70
2022/07/15 03:02:40;;;;;;;8.30;4.95;;;14.10;99.90;;;;;;5006191;28;20061;-71
2022/07/15 03:05:07;;;;;;;9.93;5.28;;;14.10;99.90;;;;;;5006917;28;20490;-72
2022/07/15 03:07:32;;;;;;;10.75;4.90;;;14.00;99.90;;;;;;5009888;28;20025;-71
2022/07/15 03:09:58;;;;;;;7.95;4.95;;;13.90;99.90;;;;;;5007789;28;20033;-71
2022/07/15 03:12:24;;;;;;;9.15;5.10;;;13.90;99.90;;;;;;5011244;28;20109;-71
2022/07/15 03:14:50;;;;;;;10.25;4.45;;;13.90;99.90;;;;;;4995407;28;20064;-71
2022/07/15 03:17:15;;;;;;;7.47;4.22;;;13.80;99.90;;;;;;5014283;28;20030;-71
2022/07/15 03:19:41;;;;;;;9.38;5.07;;;13.80;99.90;;;;;;5008518;28;20026;-71
2022/07/15 03:22:07;;;;;;;11.45;5.18;;;13.80;99.90;;;;;;5007055;28;20046;-71
2022/07/15 03:24:33;;;;;;;9.35;5.20;;;13.70;99.90;;;;;;5006965;28;20026;-71
2022/07/15 03:27:00;;;;;;;8.73;5.53;;;13.70;99.90;;;;;;5005439;28;20041;-72
2022/07/15 03:29:26;;;;;;;7.15;4.97;;;13.80;99.90;;;;;;5017208;28;20033;-72
2022/07/15 03:31:53;;;;;;;8.60;4.68;;;13.70;99.90;;;;;;5009307;28;20112;-72
2022/07/15 03:34:19;;;;;;;8.00;4.60;;;13.80;99.90;;;;;;5009514;28;20087;-72
2022/07/15 03:36:44;;;;;;;8.57;4.70;;;13.70;99.90;;;;;;5007146;28;20053;-71
2022/07/15 03:39:10;;;;;;;7.97;4.97;;;13.70;99.90;;;;;;5009411;28;20030;-71
2022/07/15 03:41:36;;;;;;;8.57;4.80;;;13.70;99.90;;;;;;5005589;28;20077;-70
2022/07/15 03:44:02;;;;;;;9.20;5.30;;;13.70;99.90;;;;;;5005592;28;20048;-70
2022/07/15 03:46:29;;;;;;;10.27;5.10;;;13.70;99.90;;;;;;4986490;28;20029;-70
2022/07/15 03:48:55;;;;;;;9.48;5.43;;;13.70;99.90;;;;;;5011720;28;20114;-70
2022/07/15 03:51:30;;;;;;;7.95;5.40;;;13.60;99.90;;;;;;5005660;28;20026;-70
2022/07/15 03:53:58;;;;;;;10.63;5.57;;;13.60;99.90;;;;;;5009893;28;20623;-70
2022/07/15 03:56:23;;;;;;;7.65;4.93;;;13.50;99.90;;;;;;5008617;28;20037;-73
2022/07/15 03:58:49;;;;;;;9.30;5.95;;;13.40;99.90;;;;;;5020887;28;20388;-71
2022/07/15 04:01:15;;;;;;;9.88;5.50;;;13.40;99.90;;;;;;5001665;28;20038;-71
2022/07/15 04:03:40;;;;;;;12.20;6.25;;;13.40;99.90;;;;;;5009056;28;20108;-71
2022/07/15 04:06:06;;;;;;;10.73;5.72;;;13.40;99.90;;;;;;5007271;28;20059;-70
2022/07/15 04:08:32;;;;;;;12.82;6.15;;;13.40;99.90;;;;;;5009970;28;20060;-71
2022/07/15 04:10:57;;;;;;;9.63;5.05;;;13.40;99.90;;;;;;5005112;28;20084;-71
2022/07/15 04:13:23;;;;;;;8.43;5.45;;;13.40;99.90;;;;;;5006531;28;20065;-71
2022/07/15 04:15:49;;;;;;;9.48;5.50;;;13.40;99.90;;;;;;5004670;28;20079;-72
2022/07/15 04:18:14;;;;;;;9.15;5.15;;;13.40;99.90;;;;;;4997696;28;20052;-70
2022/07/15 04:20:40;;;;;;;9.45;4.90;;;13.40;99.90;;;;;;5007299;28;20095;-70
2022/07/15 04:23:06;;;;;;;9.85;5.13;;;13.40;99.90;;;;;;5001247;28;20599;-70
2022/07/15 04:25:32;;;;;;;9.48;5.78;;;13.40;99.90;;;;;;5006450;28;20365;-70
2022/07/15 04:27:57;;;;;;;7.53;5.05;;;13.30;99.90;;;;;;4988788;28;20108;-71
2022/07/15 04:30:23;;;;;;;10.52;5.78;;;13.30;99.90;;;;;;4993520;28;20041;-72
2022/07/15 04:32:50;;;;;;;10.15;5.70;;;13.20;99.90;;;;;;5011894;28;20061;-72
2022/07/15 04:35:16;;;;;;;9.20;5.05;;;13.20;99.90;;;;;;5003122;28;20116;-72
2022/07/15 04:37:41;;;;;;;8.90;5.55;;;13.20;99.90;;;;;;5006840;28;20078;-72
2022/07/15 04:40:09;;;;;;;9.00;5.47;;;13.20;99.90;;;;;;4996545;28;20042;-71
2022/07/15 04:42:36;;;;;;;8.85;5.05;;;13.20;99.90;;;;;;4985585;28;20152;-71
2022/07/15 04:45:01;;;;;;;9.63;5.30;;;13.30;99.90;;;;;;4989397;28;20034;-72
2022/07/15 04:47:27;;;;;;;7.82;4.90;;;13.30;99.90;;;;;;4999014;28;20583;-71
2022/07/15 04:52:43;;;;;;;9.18;4.95;;;13.40;99.90;;;;;;5006234;28;20037;-71
2022/07/15 04:55:09;;;;;;;8.15;4.80;;;13.30;99.90;;;;;;5001059;28;20049;-71
2022/07/15 04:57:34;;;;;;;8.50;4.65;;;13.40;99.90;;;;;;5005077;28;20029;-71
2022/07/15 05:00:00;;;;;;;9.43;4.88;;;13.40;99.90;;;;;;5006233;28;20065;-71
2022/07/15 05:02:26;;;;;;;7.68;4.63;;;13.50;99.90;;;;;;5004443;28;20043;-72
2022/07/15 05:04:51;;;;;;;9.93;5.15;;;13.50;99.90;;;;;;5005929;28;20034;-70
2022/07/15 05:07:17;;;;;;;9.45;5.00;;;13.70;99.90;;;;;;5004625;28;20539;-71
2022/07/15 05:09:43;;;;;;;7.90;4.90;;;13.70;99.90;;;;;;5011030;28;20056;-72
2022/07/15 05:12:08;;;;;;;7.85;4.72;;;13.70;99.90;;;;;;5011374;28;20091;-71
2022/07/15 05:14:34;;;;;;;9.38;4.68;;;13.70;99.90;;;;;;5007872;28;20037;-71
2022/07/15 05:17:00;;;;;;;6.78;4.30;;;13.70;99.90;;;;;;5008268;28;20129;-71
2022/07/15 05:19:26;;;;;;;8.48;4.20;;;13.80;99.90;;;;;;5005744;28;20129;-71
2022/07/15 05:21:51;;;;;;;6.45;4.00;;;13.80;99.90;;;;;;5007491;28;20136;-71
2022/07/15 05:24:18;;;;;;;10.70;4.50;;;13.90;99.90;;;;;;5007344;28;20045;-72
2022/07/15 05:26:44;;;;;;;9.23;4.70;;;14.00;99.90;;;;;;5007573;28;20149;-70
2022/07/15 05:29:10;;;;;;;8.98;4.13;;;14.00;99.90;;;;;;5009701;28;20037;-71
2022/07/15 05:31:36;;;;;;;7.97;3.60;;;14.10;99.90;;;;;;5008348;28;20034;-71
2022/07/15 05:34:02;;;;;;;6.25;3.78;;;14.10;99.90;;;;;;5009182;28;20036;-72
2022/07/15 05:36:28;;;;;;;8.43;4.13;;;14.20;99.90;;;;;;5002901;28;20054;-71
2022/07/15 05:38:53;;;;;;;9.68;3.58;;;14.20;99.90;;;;;;4992135;28;20037;-73
2022/07/15 05:41:19;;;;;;;7.13;3.47;;;14.30;99.90;;;;;;5010275;28;20863;-71
2022/07/15 05:43:45;;;;;;;8.18;3.42;;;14.30;99.90;;;;;;4992210;28;20120;-71
2022/07/15 05:46:12;;;;;;;6.32;3.15;;;14.40;99.90;;;;;;5010309;28;20041;-71
2022/07/15 05:48:39;;;;;;;6.40;3.15;;;14.50;99.90;;;;;;5006774;28;20036;-71
2022/07/15 05:51:05;;;;;;;7.07;3.40;;;14.50;99.90;;;;;;4987726;28;20148;-71
2022/07/15 05:53:31;;;;;;;6.25;2.67;;;14.60;99.90;;;;;;5002353;28;20058;-71
2022/07/15 05:55:57;;;;;;;5.72;3.22;;;14.60;99.90;;;;;;5008553;28;20092;-71
2022/07/15 05:58:23;;;;;;;8.27;3.55;;;14.70;99.90;;;;;;5004765;28;20040;-71
2022/07/15 06:00:51;;;;;;;6.90;3.15;;;14.80;99.90;;;;;;5006213;28;20026;-71
2022/07/15 06:03:16;;;;;;;5.35;2.85;;;14.90;99.90;;;;;;5003727;28;20732;-72
2022/07/15 06:05:42;;;;;;;6.45;2.97;;;14.90;99.90;;;;;;5004642;28;20037;-71
2022/07/15 06:08:08;;;;;;;6.60;3.10;;;15.00;99.90;;;;;;5004412;28;20042;-71
2022/07/15 06:10:34;;;;;;;7.50;2.95;;;15.00;99.90;;;;;;5007192;28;20464;-72
2022/07/15 06:13:00;;;;;;;9.00;3.05;;;15.10;99.90;;;;;;5007856;28;20488;-71
2022/07/15 06:15:25;;;;;;;6.93;3.17;;;15.20;99.90;;;;;;5004090;28;20034;-72
2022/07/15 06:17:53;;;;;;;6.68;3.13;;;15.20;99.90;;;;;;5007831;28;20037;-71
2022/07/15 06:20:19;;;;;;;4.82;2.38;;;15.30;99.90;;;;;;5008134;28;20033;-71
2022/07/15 06:22:45;;;;;;;5.78;2.63;;;15.40;99.90;;;;;;5008987;28;20132;-71
2022/07/15 06:25:11;;;;;;;6.30;2.88;;;15.40;99.90;;;;;;4994105;28;20140;-72
2022/07/15 06:27:37;;;;;;;8.05;3.13;;;15.40;99.90;;;;;;5008554;28;20037;-72
2022/07/15 06:30:05;;;;;;;5.93;2.58;;;15.50;99.90;;;;;;5009879;28;20037;-69
2022/07/15 06:32:31;;;;;;;5.93;2.55;;;15.60;99.90;;;;;;5009566;28;20030;-70
2022/07/15 06:34:56;;;;;;;6.50;2.58;;;15.60;99.90;;;;;;5007430;28;20037;-71
2022/07/15 06:37:22;;;;;;;6.78;2.60;;;15.70;99.90;;;;;;4989864;28;20199;-71
2022/07/15 06:39:48;;;;;;;5.97;2.85;;;15.70;99.90;;;;;;4997184;28;20116;-70
2022/07/15 06:42:14;;;;;;;7.05;2.75;;;15.80;99.90;;;;;;5009590;28;20487;-72
2022/07/15 06:44:40;;;;;;;4.88;2.30;;;15.90;99.90;;;;;;5010932;28;20080;-72
2022/07/15 06:47:06;;;;;;;6.00;2.50;;;16.00;99.90;;;;;;4991164;28;20121;-72
2022/07/15 06:49:35;;;;;;;6.10;2.80;;;16.00;99.90;;;;;;5007344;28;20037;-72
2022/07/15 06:52:02;;;;;;;6.78;2.85;;;16.10;99.90;;;;;;5005073;28;20042;-70
2022/07/15 06:54:28;;;;;;;6.07;2.55;;;16.20;99.90;;;;;;5004248;28;20041;-71
2022/07/15 06:56:53;;;;;;;4.57;2.33;;;16.20;99.90;;;;;;5011679;28;20038;-71
2022/07/15 06:59:20;;;;;;;4.75;2.28;;;16.30;99.90;;;;;;4997107;28;20088;-70
2022/07/15 07:01:46;;;;;;;7.18;2.55;;;16.40;99.90;;;;;;5007615;28;20449;-70
2022/07/15 07:04:12;;;;;;;9.00;2.40;;;16.40;99.90;;;;;;5010598;28;20068;-70
2022/07/15 07:06:38;;;;;;;6.15;2.22;;;16.50;99.90;;;;;;5008722;28;20034;-71
2022/07/15 07:09:04;;;;;;;5.25;2.25;;;16.60;99.90;;;;;;5005155;28;20081;-71
2022/07/15 07:11:29;;;;;;;5.78;1.88;;;16.70;99.90;;;;;;5005765;28;20120;-72
2022/07/15 07:13:55;;;;;;;7.70;2.45;;;16.80;99.90;;;;;;4991243;28;20073;-70
2022/07/15 07:16:21;;;;;;;5.15;2.13;;;16.90;99.90;;;;;;5004075;28;20467;-70
2022/07/15 07:18:50;;;;;;;5.38;2.10;;;17.00;99.90;;;;;;5000041;28;20034;-71
2022/07/15 07:21:16;;;;;;;4.90;2.00;;;17.00;99.90;;;;;;4997489;28;20663;-70
2022/07/15 07:23:42;;;;;;;6.22;1.98;;;17.10;99.90;;;;;;5003782;28;20048;-70
2022/07/15 07:26:09;;;;;;;4.85;1.75;;;17.20;99.90;;;;;;5007290;28;20021;-71
2022/07/15 07:28:35;;;;;;;3.28;1.45;;;17.20;99.90;;;;;;4993198;28;20040;-71
2022/07/15 07:31:01;;;;;;;6.05;2.13;;;17.30;99.90;;;;;;5006897;28;20046;-71
2022/07/15 07:33:27;;;;;;;4.88;1.80;;;17.50;99.90;;;;;;5010051;28;20044;-71
2022/07/15 07:35:53;;;;;;;6.57;1.75;;;17.50;99.90;;;;;;5010089;28;20461;-71
2022/07/15 07:38:20;;;;;;;3.92;1.70;;;17.60;99.90;;;;;;5012748;28;20048;-71
2022/07/15 07:40:49;;;;;;;3.65;1.70;;;17.70;99.90;;;;;;4997563;28;20064;-71
2022/07/15 07:43:18;;;;;;;4.90;1.55;;;17.70;99.90;;;;;;5007106;28;20550;-71
2022/07/15 07:45:45;;;;;;;4.55;1.80;;;17.70;99.90;;;;;;5007348;28;20085;-71
2022/07/15 07:48:11;;;;;;;5.00;1.60;;;17.70;99.90;;;;;;5005218;28;20515;-72
2022/07/15 07:50:38;;;;;;;6.15;1.70;;;17.70;99.90;;;;;;5004594;28;20555;-72
2022/07/15 07:53:03;;;;;;;6.20;1.90;;;17.80;99.90;;;;;;4988940;28;20562;-71
2022/07/15 07:55:29;;;;;;;6.57;2.00;;;17.80;99.90;;;;;;5014857;28;20029;-71
2022/07/15 07:57:56;;;;;;;7.10;2.08;;;17.80;99.90;;;;;;5011218;28;20026;-70
2022/07/15 08:00:23;;;;;;;6.57;1.92;;;18.00;99.90;;;;;;5035887;28;20029;-70
2022/07/15 08:02:49;;;;;;;5.93;2.00;;;18.10;99.90;;;;;;5000086;28;20033;-71
2022/07/15 08:05:16;;;;;;;4.70;1.63;;;18.20;99.90;;;;;;5002441;28;20104;-70
2022/07/15 08:07:42;;;;;;;4.43;1.83;;;18.20;99.90;;;;;;4998001;28;20018;-71
2022/07/15 08:10:10;;;;;;;5.60;1.80;;;18.30;99.90;;;;;;5005813;28;20033;-70
2022/07/15 08:12:37;;;;;;;7.63;1.80;;;18.40;99.90;;;;;;5004684;28;20051;-70
2022/07/15 08:15:05;;;;;;;7.75;2.00;;;18.40;99.90;;;;;;5004681;28;20080;-70
2022/07/15 08:17:31;;;;;;;6.13;1.98;;;18.40;99.90;;;;;;5009492;28;20532;-70
2022/07/15 08:19:56;;;;;;;7.45;2.00;;;18.50;99.90;;;;;;4989435;28;20034;-69
2022/07/15 08:22:22;;;;;;;3.65;1.70;;;18.50;99.90;;;;;;5006393;28;20037;-70
2022/07/15 08:24:49;;;;;;;3.38;1.67;;;18.60;99.90;;;;;;4988735;28;20487;-70
2022/07/15 08:27:16;;;;;;;5.55;1.70;;;18.70;99.90;;;;;;5005996;28;20037;-70
2022/07/15 08:29:42;;;;;;;4.75;1.80;;;18.80;99.90;;;;;;5004840;28;20077;-70
2022/07/15 08:32:07;;;;;;;4.60;1.80;;;18.90;99.90;;;;;;5006953;28;20072;-70
2022/07/15 08:34:33;;;;;;;5.05;1.85;;;18.90;99.90;;;;;;5008677;28;20069;-69
2022/07/15 08:36:59;;;;;;;6.03;1.65;;;19.00;99.80;;;;;;5005338;28;20084;-70
2022/07/15 08:39:25;;;;;;;6.97;1.52;;;19.10;99.30;;;;;;5003770;28;20033;-70
2022/07/15 08:41:52;;;;;;;4.32;1.45;;;19.20;99.20;;;;;;5007316;28;20042;-70
2022/07/15 08:44:18;;;;;;;4.72;1.60;;;19.30;99.80;;;;;;5009789;28;20034;-71
2022/07/15 08:46:47;;;;;;;6.03;1.58;;;19.40;99.10;;;;;;5007949;28;20065;-70
2022/07/15 08:49:16;;;;;;;5.57;1.67;;;19.50;99.10;;;;;;4991325;28;20030;-69
2022/07/15 08:51:45;;;;;;;5.15;1.65;;;19.60;98.50;;;;;;5006045;28;20048;-72
2022/07/15 08:54:11;;;;;;;6.03;1.65;;;19.70;97.30;;;;;;5009092;28;20038;-71
2022/07/15 08:56:37;;;;;;;5.13;1.50;;;19.80;96.80;;;;;;4999683;28;20516;-70
2022/07/15 08:59:05;;;;;;;5.88;1.90;;;19.90;97.30;;;;;;5008014;28;20552;-70
2022/07/15 09:01:33;;;;;;;4.45;1.20;;;19.90;96.70;;;;;;5008074;28;20045;-70
2022/07/15 09:04:00;;;;;;;4.60;1.50;;;20.00;96.80;;;;;;5009002;28;20524;-70
2022/07/15 09:06:34;;;;;;;5.28;1.45;;;20.20;96.20;;;;;;5010289;28;20036;-71
2022/07/15 09:09:26;;;;;;;4.57;1.45;;;20.30;95.50;;;;;;5009369;28;20076;-70
2022/07/15 09:12:00;;;;;;;5.25;1.25;;;20.50;95.10;;;;;;5020378;28;20030;-69
2022/07/15 09:14:30;;;;;;;6.50;1.38;;;20.50;94.60;;;;;;5006968;28;20504;-72
2022/07/15 09:17:11;;;;;;;4.28;1.40;;;20.60;93.80;;;;;;5011087;28;20083;-70
2022/07/15 09:20:09;;;;;;;4.32;1.40;;;20.60;93.50;;;;;;5009467;28;20068;-71
2022/07/15 09:22:52;;;;;;;3.38;1.10;;;20.50;93.00;;;;;;5005827;28;20129;-71
2022/07/15 09:25:19;;;;;;;4.50;1.15;;;20.50;92.60;;;;;;5010005;28;20068;-71
2022/07/15 09:27:45;;;;;;;3.58;0.90;;;20.60;91.60;;;;;;5011068;28;20060;-70
2022/07/15 09:36:21;;;;;;;2.85;1.10;;;20.90;88.80;;;;;;5007452;28;20546;-70
2022/07/15 09:38:49;;;;;;;4.72;1.08;;;21.10;90.20;;;;;;5004365;28;20104;-70
2022/07/15 09:41:32;;;;;;;5.03;1.10;;;21.20;88.20;;;;;;5006873;28;20060;-71
2022/07/15 09:44:00;;;;;;;3.15;1.00;;;21.30;89.20;;;;;;5008353;28;20594;-72
2022/07/15 09:46:29;;;;;;;3.63;0.65;;;21.40;83.60;;;;;;5006638;28;20038;-71
2022/07/15 09:48:55;;;;;;;3.78;1.33;;;21.50;81.50;;;;;;5007933;28;20026;-70
2022/07/15 09:51:22;;;;;;;3.33;0.85;;;21.60;77.80;;;;;;5010280;28;20048;-71
2022/07/15 09:53:49;;;;;;;2.42;0.93;;;21.60;77.30;;;;;;5010005;28;20041;-72
2022/07/15 09:56:22;;;;;;;1.40;0.55;;;21.60;79.20;;;;;;5009261;28;20044;-73
2022/07/15 09:58:49;;;;;;;2.80;1.00;;;21.70;67.00;;;;;;5009176;28;20162;-71
2022/07/15 10:01:15;;;;;;;3.28;0.90;;;21.80;63.80;;;;;;5010362;28;20033;-72
2022/07/15 10:03:41;;;;;;;3.83;0.70;;;21.70;70.10;;;;;;5012121;28;20026;-72
2022/07/15 10:06:11;;;;;;;1.92;0.60;;;21.80;67.50;;;;;;5012202;28;20057;-71
2022/07/15 10:08:38;;;;;;;1.98;0.63;;;21.90;72.10;;;;;;5010512;28;20048;-70
2022/07/15 10:11:09;;;;;;;2.40;0.70;;;22.20;74.70;;;;;;5010630;28;20041;-71
2022/07/15 10:13:35;;;;;;;3.53;0.85;;;22.40;67.70;;;;;;5000805;28;20026;-70
2022/07/15 10:16:27;;;;;;;1.63;0.60;;;22.60;66.50;;;;;;5010500;28;20042;-71
2022/07/15 10:19:26;;;;;;;2.88;0.80;;;22.70;62.80;;;;;;5010389;28;20111;-72
2022/07/15 10:22:08;;;;;;;4.97;0.90;;;22.70;58.50;;;;;;5006376;28;20050;-70
2022/07/15 10:25:08;;;;;;;3.05;0.88;;;22.90;63.50;;;;;;5010154;28;20279;-70
2022/07/15 10:27:54;;;;;;;2.00;0.75;;;23.00;61.50;;;;;;5010374;28;20116;-71
2022/07/15 10:30:22;;;;;;;3.58;0.90;;;23.00;60.70;;;;;;4978385;28;20084;-72
2022/07/15 10:33:05;;;;;;;2.03;0.50;;;23.10;57.10;;;;;;5008081;28;20069;-71
2022/07/15 10:35:43;;;;;;;2.05;0.68;;;23.10;57.40;;;;;;5008611;28;20038;-71
2022/07/15 10:38:38;;;;;;;2.80;0.75;;;23.10;54.70;;;;;;5018474;28;20120;-72
2022/07/15 10:41:20;;;;;;;3.60;0.80;;;23.20;53.60;;;;;;5005364;28;20129;-71
2022/07/15 10:43:51;;;;;;;2.55;0.60;;;23.30;54.10;;;;;;5028673;28;20045;-72
2022/07/15 10:46:17;;;;;;;2.28;0.73;;;23.50;51.90;;;;;;5019837;28;20112;-71
2022/07/15 10:49:12;;;;;;;2.17;0.57;;;23.70;53.90;;;;;;5028575;28;20124;-72
2022/07/15 10:51:37;;;;;;;2.17;0.75;;;23.70;50.50;;;;;;4999816;28;20184;-71
2022/07/15 10:54:07;;;;;;;1.90;0.70;;;23.60;51.20;;;;;;5012287;28;20109;-71
2022/07/15 10:56:42;;;;;;;2.15;0.60;;;23.60;51.20;;;;;;5005523;28;20037;-70
2022/07/15 10:59:10;;;;;;;2.47;0.60;;;23.50;47.60;;;;;;5026024;28;20231;-70
2022/07/15 11:01:37;;;;;;;2.80;0.82;;;23.60;49.50;;;;;;5023328;28;20115;-71
2022/07/15 11:04:18;;;;;;;1.50;0.60;;;23.70;47.70;;;;;;5017817;28;20541;-71
2022/07/15 11:07:09;;;;;;;1.55;0.60;;;23.70;45.60;;;;;;5029365;28;20025;-70
2022/07/15 11:09:53;;;;;;;2.03;0.70;;;23.90;45.90;;;;;;5027913;28;20056;-71
2022/07/15 11:12:20;;;;;;;4.10;0.60;;;24.10;47.70;;;;;;5024861;28;20751;-71
2022/07/15 11:15:11;;;;;;;1.55;0.52;;;24.30;45.40;;;;;;5011199;28;20037;-71
2022/07/15 11:17:41;;;;;;;3.13;0.90;;;24.40;43.50;;;;;;5001093;28;20034;-72
2022/07/15 11:20:17;;;;;;;1.35;0.60;;;24.40;44.70;;;;;;4972099;28;20060;-71
2022/07/15 11:22:52;;;;;;;2.58;0.70;;;25.40;42.50;;;;;;5006184;28;20033;-70
2022/07/15 11:25:28;;;;;;;1.80;0.80;;;26.50;43.60;;;;;;4988100;28;20037;-72
2022/07/15 11:28:05;;;;;;;1.88;0.63;;;26.60;41.20;;;;;;4988292;28;20038;-71
2022/07/15 11:30:35;;;;;;;3.08;0.90;;;28.40;39.30;;;;;;4989599;28;20396;-70
2022/07/15 11:33:03;;;;;;;2.33;0.80;;;28.50;38.00;;;;;;4989664;28;20042;-70
2022/07/15 11:35:29;;;;;;;1.75;0.70;;;28.80;35.30;;;;;;4971348;28;20790;-71
2022/07/15 11:38:03;;;;;;;1.55;0.60;;;28.40;37.10;;;;;;5001107;28;20103;-70
2022/07/15 11:46:05;;;;;;;2.22;0.63;;;26.50;37.20;;;;;;4989369;28;20037;-68
2022/07/15 11:48:38;;;;;;;1.52;0.60;;;26.00;39.70;;;;;;4989212;28;20093;-70
2022/07/15 11:51:06;;;;;;;1.48;0.60;;;25.70;39.10;;;;;;5004444;28;20033;-69
2022/07/15 11:53:37;;;;;;;2.42;0.73;;;25.40;38.50;;;;;;5007987;28;20034;-70
2022/07/15 11:56:03;;;;;;;2.25;0.70;;;25.20;40.10;;;;;;5017475;28;20123;-71
2022/07/15 11:58:32;;;;;;;1.35;0.70;;;25.20;41.30;;;;;;5008855;28;20037;-70
2022/07/15 12:01:00;;;;;;;2.33;0.70;;;25.20;40.70;;;;;;5008485;28;20033;-71
2022/07/15 12:03:53;;;;;;;2.38;0.60;;;25.20;37.90;;;;;;5008379;28;20552;-71
2022/07/15 12:06:22;;;;;;;1.05;0.60;;;25.20;38.70;;;;;;5008295;28;20057;-70
2022/07/15 12:08:57;;;;;;;3.60;0.93;;;25.50;40.00;;;;;;4990861;28;20053;-71
2022/07/15 12:11:37;;;;;;;3.28;0.75;;;25.50;47.20;;;;;;5007003;28;20037;-68
2022/07/15 12:14:07;;;;;;;3.33;0.75;;;25.40;39.00;;;;;;5007014;28;20030;-71
2022/07/15 12:16:40;;;;;;;4.90;0.90;;;25.20;45.00;;;;;;5000977;28;20389;-72
2022/07/15 12:19:14;;;;;;;4.25;1.00;;;25.30;49.30;;;;;;5005210;28;20104;-71
2022/07/15 12:21:43;;;;;;;3.92;1.15;;;25.20;49.60;;;;;;4982584;28;20045;-71
2022/07/15 12:24:17;;;;;;;4.82;0.90;;;25.20;49.50;;;;;;4990732;28;20042;-71
2022/07/15 12:26:49;;;;;;;5.57;1.20;;;25.20;48.80;;;;;;5008740;28;20053;-72
2022/07/15 12:29:17;;;;;;;3.38;1.10;;;25.20;50.00;;;;;;5006840;28;20025;-71
2022/07/15 12:31:50;;;;;;;2.65;0.80;;;25.20;48.80;;;;;;5007174;28;20038;-71
2022/07/15 12:34:16;;;;;;;3.70;1.10;;;25.00;50.10;;;;;;5008074;28;20049;-72
2022/07/15 12:36:41;;;;;;;2.00;0.80;;;25.10;50.40;;;;;;5005280;28;20081;-70
2022/07/15 12:39:18;;;;;;;4.07;0.98;;;25.00;47.70;;;;;;5003555;28;20042;-71
2022/07/15 12:41:55;;;;;;;3.90;1.02;;;25.00;47.50;;;;;;5018374;28;20034;-69
2022/07/15 12:44:21;;;;;;;4.00;1.00;;;24.90;47.90;;;;;;5007733;28;20049;-70
2022/07/15 12:46:54;;;;;;;4.25;0.80;;;24.90;48.50;;;;;;5007318;28;20038;-70
2022/07/15 12:49:41;;;;;;;2.42;0.90;;;25.00;49.00;;;;;;5008020;28;20034;-71
2022/07/15 12:52:23;;;;;;;2.17;0.70;;;25.20;46.80;;;;;;5008020;28;20048;-72
2022/07/15 12:54:51;;;;;;;2.95;0.98;;;25.30;47.10;;;;;;4994106;28;20511;-71
2022/07/15 12:57:29;;;;;;;4.93;0.95;;;25.30;46.90;;;;;;5007677;28;20124;-72
2022/07/15 13:00:10;;;;;;;3.20;1.00;;;25.30;47.40;;;;;;5022759;28;20408;-72
2022/07/15 13:02:59;;;;;;;3.05;1.25;;;25.20;47.00;;;;;;5006035;28;20069;-71
2022/07/15 13:05:27;;;;;;;2.90;0.93;;;25.30;46.70;;;;;;5000877;28;20089;-71
2022/07/15 13:07:52;;;;;;;2.15;0.85;;;25.30;46.40;;;;;;5007113;28;20400;-71